Time;durP1;ratioP1;P1;durP2;ratioP2;P2;SDS_P1;SDS_P2;PMS_P1;PMS_P2;Temp;Humidity;BMP_temperature;BMP_pressure;BME280_temperature;BME280_humidity;BME280_pressure;Samples;Min_cycle;Max_cycle;Signal;HPM_P1;HPM_P2
2023/08/05 00:03:05;;;;;;;9.00;3.83;;;;;;;29.85;44.22;98400.91;4842737;29;20695;-94
2023/08/05 00:06:33;;;;;;;;;;;;;;;;;;;;;
2023/08/05 00:12:34;;;;;;;;;;;;;;;;;;;;;
2023/08/05 00:15:35;;;;;;;;;;;;;;;;;;;;;
2023/08/05 00:22:14;;;;;;;;;;;;;;;;;;;;;
2023/08/05 00:28:38;;;;;;;;;;;;;;;;;;;;;
2023/08/05 00:43:22;;;;;;;;;;;;;;;;;;;;;
2023/08/05 00:49:30;;;;;;;;;;;;;;;;;;;;;
2023/08/05 01:05:45;;;;;;;7.20;4.07;;;;;;;28.80;54.27;98336.81;4771795;30;20223;-93
2023/08/05 01:08:33;;;;;;;6.65;4.13;;;;;;;28.54;56.06;98338.53;4789974;29;20228;-94
2023/08/05 01:11:07;;;;;;;8.60;4.03;;;;;;;28.45;56.38;98339.81;4805168;29;20191;-93
2023/08/05 01:24:49;;;;;;;8.07;4.63;;;;;;;28.57;55.78;98332.72;4786484;30;20250;-94
2023/08/05 01:28:11;;;;;;;7.05;4.32;;;;;;;28.54;55.79;98337.69;4862909;29;20176;-94
2023/08/05 01:38:48;;;;;;;;;;;;;;;;;;;;;
2023/08/05 01:41:27;;;;;;;6.13;3.83;;;;;;;28.56;55.68;98330.25;4801168;29;20646;-93
2023/08/05 01:51:23;;;;;;;;;;;;;;;;;;;;;
2023/08/05 01:54:34;;;;;;;;;;;;;;;;;;;;;
2023/08/05 01:57:21;;;;;;;;;;;;;;;;;;;;;
2023/08/05 02:00:34;;;;;;;;;;;;;;;;;;;;;
2023/08/05 02:03:26;;;;;;;;;;;;;;;;;;;;;
2023/08/05 02:07:12;;;;;;;;;;;;;;;;;;;;;
2023/08/05 02:10:28;;;;;;;;;;;;;;;;;;;;;
2023/08/05 02:32:00;;;;;;;;;;;;;;;;;;;;;
2023/08/05 02:39:24;;;;;;;;;;;;;;;;;;;;;
2023/08/05 02:49:51;;;;;;;;;;;;;;;;;;;;;
2023/08/05 03:00:32;;;;;;;;;;;;;;;;;;;;;
2023/08/05 03:03:39;;;;;;;;;;;;;;;;;;;;;
2023/08/05 03:17:09;;;;;;;;;;;;;;;;;;;;;
2023/08/05 03:20:12;;;;;;;8.40;4.53;;;;;;;27.17;58.33;98339.53;4770272;30;20647;-94
2023/08/05 03:30:55;;;;;;;;;;;;;;;;;;;;;
2023/08/05 03:33:24;;;;;;;;;;;;;;;;;;;;;
2023/08/05 03:36:36;;;;;;;;;;;;;;;;;;;;;
2023/08/05 03:42:43;;;;;;;9.03;5.23;;;;;;;26.81;54.35;98355.97;4839470;29;20200;-93
2023/08/05 04:02:45;;;;;;;12.27;5.73;;;;;;;26.53;58.61;98338.28;4911339;29;20750;-94
2023/08/05 04:08:59;;;;;;;;;;;;;;;;;;;;;
2023/08/05 04:11:48;;;;;;;8.00;5.10;;;;;;;26.68;60.60;98334.41;4916475;29;20183;-94
2023/08/05 04:14:38;;;;;;;11.47;6.43;;;;;;;26.76;61.79;98334.22;4931794;29;20193;-94
2023/08/05 04:18:00;;;;;;;;;;;;;;;;;;;;;
2023/08/05 04:20:40;;;;;;;;;;;;;;;;;;;;;
2023/08/05 04:23:59;;;;;;;8.77;6.35;;;;;;;26.96;65.86;98339.69;4922915;29;20182;-93
2023/08/05 04:26:40;;;;;;;12.00;7.33;;;;;;;27.07;66.29;98335.56;4931095;29;20194;-92
2023/08/05 04:29:43;;;;;;;;;;;;;;;;;;;;;
2023/08/05 04:32:57;;;;;;;;;;;;;;;;;;;;;
2023/08/05 04:43:08;;;;;;;;;;;;;;;;;;;;;
2023/08/05 04:56:54;;;;;;;;;;;;;;;;;;;;;
2023/08/05 05:17:31;;;;;;;8.57;6.28;;;;;;;28.91;62.25;98339.63;4768456;30;20199;-95
2023/08/05 05:24:35;;;;;;;;;;;;;;;;;;;;;
2023/08/05 05:27:37;;;;;;;12.40;7.65;;;;;;;30.00;59.21;98325.72;4734171;30;20227;-94
2023/08/05 05:30:11;;;;;;;12.88;6.88;;;;;;;30.02;59.13;98318.22;4731473;30;20209;-94
2023/08/05 05:36:28;;;;;;;11.57;6.50;;;;;;;29.92;58.70;98318.75;4691086;30;20206;-95
2023/08/05 05:39:55;;;;;;;;;;;;;;;;;;;;;
2023/08/05 05:46:47;;;;;;;;;;;;;;;;;;;;;
2023/08/05 05:49:18;;;;;;;10.38;7.03;;;;;;;30.16;58.08;98333.25;4777731;30;20210;-93
2023/08/05 05:52:35;;;;;;;;;;;;;;;;;;;;;
2023/08/05 05:55:22;;;;;;;9.57;6.65;;;;;;;30.10;57.57;98334.13;4786333;30;20193;-94
2023/08/05 06:23:13;;;;;;;;;;;;;;;;;;;;;
2023/08/05 06:26:16;;;;;;;;;;;;;;;;;;;;;
2023/08/05 06:29:04;;;;;;;;;;;;;;;;;;;;;
2023/08/05 06:31:46;;;;;;;37.83;18.77;;;;;;;31.89;49.92;98308.69;4857730;29;20196;-94
2023/08/05 06:34:21;;;;;;;18.10;9.38;;;;;;;32.15;49.33;98316.34;4884706;29;20193;-95
2023/08/05 06:37:13;;;;;;;;;;;;;;;;;;;;;
2023/08/05 06:39:45;;;;;;;12.63;8.05;;;;;;;32.85;47.67;98313.47;4957974;29;20184;-94
2023/08/05 06:42:23;;;;;;;13.38;8.77;;;;;;;33.10;46.73;98302.28;4941275;29;20180;-93
2023/08/05 06:45:15;;;;;;;16.33;8.07;;;;;;;33.42;46.54;98301.47;4957405;29;20741;-93
2023/08/05 06:48:07;;;;;;;9.50;6.93;;;;;;;33.43;45.16;98296.88;4941157;29;20262;-94
2023/08/05 06:50:36;;;;;;;10.68;6.38;;;;;;;33.59;44.11;98287.94;4941210;29;20185;-93
2023/08/05 06:56:54;;;;;;;10.80;6.97;;;;;;;34.18;43.05;98275.47;4954232;29;20752;-94
2023/08/05 07:00:57;;;;;;;;;;;;;;;;;;;;;
2023/08/05 07:10:29;;;;;;;11.77;6.57;;;;;;;34.78;42.45;98272.66;4899061;29;20680;-94
2023/08/05 07:14:02;;;;;;;10.07;7.18;;;;;;;35.00;40.96;98283.50;4898394;29;20191;-95
2023/08/05 07:19:39;;;;;;;10.82;5.45;;;;;;;35.64;39.58;98274.25;4963678;28;20377;-93
2023/08/05 07:26:05;;;;;;;;;;;;;;;;;;;;;
2023/08/05 07:39:48;;;;;;;;;;;;;;;;;;;;;
2023/08/05 07:45:21;;;;;;;;;;;;;;;;;;;;;
2023/08/05 07:55:56;;;;;;;;;;;;;;;;;;;;;
2023/08/05 08:03:47;;;;;;;;;;;;;;;;;;;;;
2023/08/05 08:09:17;;;;;;;;;;;;;;;;;;;;;
2023/08/05 08:22:51;;;;;;;5.60;2.78;;;;;;;37.27;32.65;98247.31;4745009;30;20266;-89
2023/08/05 08:25:57;;;;;;;;;;;;;;;;;;;;;
2023/08/05 08:32:32;;;;;;;4.25;2.53;;;;;;;37.78;31.62;98228.97;4791774;29;20187;-91
2023/08/05 08:39:57;;;;;;;;;;;;;;;;;;;;;
2023/08/05 08:49:24;;;;;;;5.20;2.25;;;;;;;38.84;31.15;98212.09;4768974;30;20186;-91
2023/08/05 09:14:14;;;;;;;;;;;;;;;;;;;;;
2023/08/05 09:20:27;;;;;;;3.88;1.90;;;;;;;39.30;29.49;98163.22;4630600;31;20243;-92
2023/08/05 09:23:18;;;;;;;;;;;;;;;;;;;;;
2023/08/05 09:25:51;;;;;;;3.17;1.85;;;;;;;38.94;27.77;98170.94;4664167;30;20631;-90
2023/08/05 09:36:25;;;;;;;;;;;;;;;;;;;;;
2023/08/05 09:53:22;;;;;;;3.15;1.70;;;;;;;39.44;27.09;98130.44;4600377;31;20627;-93
2023/08/05 09:55:49;;;;;;;4.53;2.05;;;;;;;39.40;27.78;98126.63;4604923;30;20211;-94
2023/08/05 09:58:42;;;;;;;;;;;;;;;;;;;;;
2023/08/05 10:01:46;;;;;;;3.92;1.58;;;;;;;39.94;28.38;98105.13;4657284;30;20212;-94
2023/08/05 10:04:16;;;;;;;2.75;1.80;;;;;;;39.99;27.51;98099.59;4704380;30;20636;-93
2023/08/05 10:10:19;;;;;;;2.75;1.33;;;;;;;39.82;25.02;98096.53;4876683;29;20221;-94
2023/08/05 10:13:40;;;;;;;;;;;;;;;;;;;;;
2023/08/05 10:19:53;;;;;;;2.53;1.38;;;;;;;40.46;24.53;98096.69;4934272;29;20194;-95
2023/08/05 10:22:34;;;;;;;;;;;;;;;;;;;;;
2023/08/05 10:25:27;;;;;;;2.00;1.10;;;;;;;40.79;23.97;98088.50;4959092;29;20193;-93
2023/08/05 10:27:57;;;;;;;2.80;1.52;;;;;;;40.48;24.42;98080.78;4946569;29;20196;-94
2023/08/05 10:31:25;;;;;;;3.45;1.63;;;;;;;40.66;24.99;98076.34;4941633;29;20177;-95
2023/08/05 10:38:33;;;;;;;;;;;;;;;;;;;;;
2023/08/05 10:44:35;;;;;;;4.07;1.20;;;;;;;41.64;23.60;98064.88;4892753;29;20206;-93
2023/08/05 10:47:24;;;;;;;3.35;1.60;;;;;;;41.49;23.35;98051.47;4900318;29;20269;-94
2023/08/05 10:50:23;;;;;;;3.75;1.13;;;;;;;41.37;23.81;98047.59;4935279;29;20193;-94
2023/08/05 10:53:03;;;;;;;3.22;1.60;;;;;;;40.83;23.38;98042.81;4940357;29;20208;-95
2023/08/05 10:59:50;;;;;;;;;;;;;;;;;;;;;
2023/08/05 11:02:31;;;;;;;;;;;;;;;;;;;;;
2023/08/05 11:05:54;;;;;;;3.10;1.50;;;;;;;41.87;23.59;98020.97;4957695;29;20201;-94
2023/08/05 11:08:37;;;;;;;5.10;1.23;;;;;;;41.27;22.74;98015.59;4880334;29;20199;-94
2023/08/05 11:11:22;;;;;;;1.80;1.00;;;;;;;41.59;23.62;98007.22;4880200;29;20387;-94
2023/08/05 11:13:50;;;;;;;2.88;1.20;;;;;;;41.91;21.86;97991.66;4957786;29;20158;-94
2023/08/05 11:16:20;;;;;;;2.25;1.42;;;;;;;41.90;20.47;97990.88;4956440;29;20180;-94
2023/08/05 11:18:55;;;;;;;2.17;1.05;;;;;;;41.99;21.30;97988.16;4941093;29;20649;-93
2023/08/05 11:21:22;;;;;;;3.10;1.50;;;;;;;42.20;20.34;97979.13;4931453;29;20204;-95
2023/08/05 11:23:49;;;;;;;4.28;1.10;;;;;;;42.21;19.48;97982.72;4940175;29;20267;-93
2023/08/05 11:26:28;;;;;;;1.77;1.08;;;;;;;42.45;20.10;97980.44;4939809;29;20209;-94
2023/08/05 11:29:05;;;;;;;2.63;1.17;;;;;;;42.67;19.52;97977.66;4938102;29;20166;-94
2023/08/05 11:31:31;;;;;;;1.75;1.02;;;;;;;42.73;19.65;97965.38;4937445;29;20204;-90
2023/08/05 11:33:58;;;;;;;2.90;1.30;;;;;;;42.11;19.86;97963.66;4943931;29;20186;-92
2023/08/05 11:36:29;;;;;;;1.85;1.00;;;;;;;41.89;20.35;97964.47;4952949;29;20252;-93
2023/08/05 11:39:00;;;;;;;2.20;1.25;;;;;;;41.60;20.57;97961.25;4936928;29;20209;-93
2023/08/05 11:44:40;;;;;;;3.00;1.25;;;;;;;41.99;20.52;97944.94;4948700;29;20263;-93
2023/08/05 11:47:39;;;;;;;3.53;1.40;;;;;;;42.40;20.37;97942.00;4957116;29;20165;-95
2023/08/05 11:50:05;;;;;;;1.88;1.13;;;;;;;42.49;20.15;97947.53;4914532;29;20268;-90
2023/08/05 11:53:05;;;;;;;3.28;1.50;;;;;;;42.30;20.02;97942.25;4956732;29;20181;-95
2023/08/05 11:55:47;;;;;;;2.17;0.98;;;;;;;42.37;19.49;97945.38;4956582;29;20192;-94
2023/08/05 11:58:23;;;;;;;1.73;1.02;;;;;;;42.62;19.59;97941.97;4956046;29;20243;-94
2023/08/05 12:01:16;;;;;;;3.55;1.50;;;;;;;43.20;19.43;97930.69;4939803;29;20189;-95
2023/08/05 12:03:43;;;;;;;2.20;1.35;;;;;;;43.26;18.75;97920.31;4939798;29;20262;-93
2023/08/05 12:06:38;;;;;;;;;;;;;;;;;;;;;
2023/08/05 12:09:07;;;;;;;3.10;1.33;;;;;;;43.27;19.74;97928.25;4940588;29;20549;-93
2023/08/05 12:11:44;;;;;;;2.70;1.50;;;;;;;43.50;20.21;97912.44;4941171;29;20177;-92
2023/08/05 12:14:14;;;;;;;2.65;1.15;;;;;;;43.30;18.97;97913.84;4951101;29;20239;-93
2023/08/05 12:16:44;;;;;;;2.33;1.40;;;;;;;43.19;18.89;97918.03;4920255;29;20574;-94
2023/08/05 12:19:36;;;;;;;4.03;1.23;;;;;;;43.53;18.68;97906.25;4936528;29;20694;-95
2023/08/05 12:22:02;;;;;;;2.70;1.45;;;;;;;43.55;19.76;97908.69;4920277;29;20268;-95
2023/08/05 12:27:15;;;;;;;2.47;1.30;;;;;;;43.47;18.34;97906.75;4926301;29;20283;-93
2023/08/05 12:29:44;;;;;;;3.25;1.50;;;;;;;43.30;18.94;97907.50;4939376;29;20181;-95
2023/08/05 12:32:58;;;;;;;1.88;1.25;;;;;;;43.36;18.72;97892.44;4956635;29;20172;-94
2023/08/05 12:39:14;;;;;;;3.28;1.40;;;;;;;44.23;18.34;97881.06;4942474;29;20192;-94
2023/08/05 12:41:43;;;;;;;2.50;1.30;;;;;;;43.72;18.02;97881.94;4956366;29;20156;-93
2023/08/05 12:44:09;;;;;;;3.65;1.63;;;;;;;43.30;18.49;97879.91;4956069;29;20191;-90
2023/08/05 12:47:07;;;;;;;2.67;1.55;;;;;;;43.39;18.66;97872.50;4956157;29;20275;-93
2023/08/05 12:49:36;;;;;;;2.53;1.40;;;;;;;43.62;17.52;97875.91;4939397;29;20185;-94
2023/08/05 12:52:05;;;;;;;2.13;1.10;;;;;;;43.53;17.54;97864.84;4939081;29;20184;-93
2023/08/05 12:54:30;;;;;;;4.03;1.73;;;;;;;43.52;17.74;97866.00;4955776;29;20172;-92
2023/08/05 12:56:56;;;;;;;2.65;1.15;;;;;;;43.58;17.66;97856.44;4938933;29;20184;-94
2023/08/05 12:59:24;;;;;;;2.33;1.35;;;;;;;43.28;18.02;97863.69;4939514;29;20188;-94
2023/08/05 13:04:58;;;;;;;3.17;1.17;;;;;;;43.48;17.65;97862.25;4915905;29;20276;-95
2023/08/05 13:11:50;;;;;;;1.80;1.00;;;;;;;43.95;17.26;97847.44;4858973;29;20608;-94
2023/08/05 13:14:20;;;;;;;3.17;1.20;;;;;;;44.03;16.07;97843.84;4874656;29;20226;-93
2023/08/05 13:17:12;;;;;;;2.63;1.05;;;;;;;44.16;17.36;97853.09;4896945;29;20190;-94
2023/08/05 13:19:47;;;;;;;2.15;1.00;;;;;;;43.87;16.44;97848.28;4844418;29;20282;-94
2023/08/05 13:22:18;;;;;;;5.72;1.58;;;;;;;43.80;16.95;97838.88;4880628;29;20579;-94
2023/08/05 13:25:23;;;;;;;;;;;;;;;;;;;;;
2023/08/05 13:31:26;;;;;;;5.22;1.20;;;;;;;43.20;17.84;97814.00;4932811;29;20255;-92
2023/08/05 13:33:53;;;;;;;5.05;1.42;;;;;;;42.68;17.87;97829.63;4959144;29;20323;-90
2023/08/05 13:36:19;;;;;;;2.55;1.00;;;;;;;42.78;18.17;97816.38;4959538;29;20176;-92
2023/08/05 13:39:15;;;;;;;2.20;1.00;;;;;;;42.76;18.52;97804.03;4959187;29;20520;-94
2023/08/05 13:42:01;;;;;;;1.92;0.98;;;;;;;43.09;18.08;97794.22;4959470;29;20220;-95
2023/08/05 13:44:28;;;;;;;2.22;1.05;;;;;;;42.98;17.52;97800.38;4924952;29;20283;-90
2023/08/05 13:46:59;;;;;;;1.90;1.00;;;;;;;42.24;18.62;97800.28;4958873;29;20642;-93
2023/08/05 13:49:26;;;;;;;2.45;1.20;;;;;;;42.03;18.70;97793.69;4959009;29;20599;-93
2023/08/05 13:52:13;;;;;;;2.05;1.08;;;;;;;41.98;19.63;97796.56;4940211;29;20193;-93
2023/08/05 13:54:38;;;;;;;1.55;0.90;;;;;;;42.13;18.73;97794.25;4942371;29;20220;-92
2023/08/05 13:57:34;;;;;;;3.15;1.38;;;;;;;42.65;18.57;97789.75;4942075;29;20196;-93
2023/08/05 14:00:15;;;;;;;3.28;1.58;;;;;;;42.40;18.54;97789.66;4942056;29;20205;-93
2023/08/05 14:02:45;;;;;;;2.38;1.10;;;;;;;42.17;18.04;97784.22;4942053;29;20263;-93
2023/08/05 14:05:25;;;;;;;;;;;;;;;;;;;;;
2023/08/05 14:07:57;;;;;;;1.48;0.80;;;;;;;42.60;18.05;97773.38;4959364;29;20180;-94
2023/08/05 14:10:34;;;;;;;2.33;1.00;;;;;;;42.39;18.41;97761.28;4941644;29;20181;-93
2023/08/05 14:16:40;;;;;;;;;;;;;;;;;;;;;
2023/08/05 14:19:30;;;;;;;2.20;1.02;;;;;;;42.55;18.21;97747.91;4882144;29;20187;-95
2023/08/05 14:21:56;;;;;;;3.58;1.15;;;;;;;42.58;17.70;97755.53;4865590;29;20195;-91
2023/08/05 14:24:22;;;;;;;2.45;1.00;;;;;;;42.00;17.95;97742.81;4880974;29;20239;-91
2023/08/05 14:26:52;;;;;;;1.75;0.90;;;;;;;42.05;18.76;97736.34;4889207;29;20254;-93
2023/08/05 14:29:18;;;;;;;2.10;1.30;;;;;;;41.74;18.80;97730.03;4941723;29;20169;-93
2023/08/05 14:31:43;;;;;;;1.88;1.10;;;;;;;41.45;18.84;97736.00;4941501;29;20181;-92
2023/08/05 14:34:09;;;;;;;1.88;0.82;;;;;;;41.46;19.11;97727.41;4941367;29;20195;-93
2023/08/05 14:36:34;;;;;;;2.63;1.15;;;;;;;41.88;18.84;97722.53;4940965;29;20546;-93
2023/08/05 14:39:00;;;;;;;1.90;0.93;;;;;;;42.21;18.13;97715.53;4958074;29;20205;-93
2023/08/05 14:41:27;;;;;;;2.78;1.02;;;;;;;41.96;17.80;97713.44;4944478;29;20177;-94
2023/08/05 14:43:54;;;;;;;2.50;1.27;;;;;;;41.74;18.67;97716.28;4946802;29;20192;-93
2023/08/05 14:46:45;;;;;;;1.92;1.00;;;;;;;41.60;18.36;97706.16;4947261;29;20201;-94
2023/08/05 14:49:10;;;;;;;3.38;1.05;;;;;;;41.69;18.29;97708.97;4957899;29;20630;-94
2023/08/05 14:54:26;;;;;;;1.83;1.10;;;;;;;41.88;19.08;97693.03;4944428;29;20275;-95
2023/08/05 14:56:51;;;;;;;2.20;1.30;;;;;;;41.73;18.77;97696.19;4936842;29;20321;-95
2023/08/05 14:59:19;;;;;;;2.25;1.20;;;;;;;41.22;19.14;97687.59;4953858;29;20272;-94
2023/08/05 15:01:52;;;;;;;1.70;0.90;;;;;;;41.59;19.05;97690.75;4922170;29;20185;-94
2023/08/05 15:04:20;;;;;;;2.38;1.02;;;;;;;42.04;18.84;97680.44;4921910;29;20184;-95
2023/08/05 15:06:46;;;;;;;2.15;1.13;;;;;;;41.68;18.16;97677.88;4956482;29;20682;-93
2023/08/05 15:09:15;;;;;;;1.85;0.90;;;;;;;41.97;18.75;97676.53;4957558;29;20188;-94
2023/08/05 15:11:41;;;;;;;1.85;0.80;;;;;;;41.67;18.62;97678.97;4940527;29;20188;-94
2023/08/05 15:14:06;;;;;;;3.33;1.15;;;;;;;41.90;18.79;97662.44;4941013;29;20180;-94
2023/08/05 15:16:35;;;;;;;1.90;0.88;;;;;;;41.91;18.23;97667.63;4941040;29;20742;-94
2023/08/05 15:19:00;;;;;;;2.95;1.50;;;;;;;41.60;18.73;97662.13;4957258;29;20169;-93
2023/08/05 15:21:26;;;;;;;1.73;0.90;;;;;;;41.69;18.15;97662.97;4940830;29;20181;-93
2023/08/05 15:23:52;;;;;;;1.73;0.93;;;;;;;41.64;18.44;97665.84;4940715;29;20710;-93
2023/08/05 15:26:17;;;;;;;3.05;1.00;;;;;;;41.07;19.49;97666.78;4921349;29;20201;-94
2023/08/05 15:28:43;;;;;;;2.03;1.15;;;;;;;41.14;19.11;97667.19;4952057;29;20189;-90
2023/08/05 15:31:18;;;;;;;2.15;1.05;;;;;;;40.92;19.14;97661.66;4956842;29;20564;-93
2023/08/05 15:33:44;;;;;;;2.50;1.30;;;;;;;40.90;19.47;97663.94;4939899;29;20508;-93
2023/08/05 15:36:16;;;;;;;2.75;1.23;;;;;;;41.11;19.26;97659.56;4956893;29;20615;-93
2023/08/05 15:38:44;;;;;;;1.95;1.02;;;;;;;40.95;19.79;97656.38;4940119;29;20184;-93
2023/08/05 15:41:10;;;;;;;2.33;1.17;;;;;;;40.62;19.91;97643.16;4940059;29;20196;-94
2023/08/05 15:43:35;;;;;;;3.03;1.20;;;;;;;40.69;19.69;97646.25;4940234;29;20189;-93
2023/08/05 15:46:03;;;;;;;1.85;0.93;;;;;;;40.63;19.94;97645.56;4956579;29;20541;-94
2023/08/05 15:48:29;;;;;;;3.17;1.30;;;;;;;40.48;20.04;97640.44;4939175;29;20295;-90
2023/08/05 15:51:02;;;;;;;1.77;0.82;;;;;;;40.45;20.23;97636.34;4939870;29;20670;-92
2023/08/05 15:53:28;;;;;;;2.17;1.00;;;;;;;40.34;20.43;97634.94;4940077;29;20176;-94
2023/08/05 15:56:10;;;;;;;1.90;1.10;;;;;;;40.30;20.43;97628.44;4956841;29;20173;-92
2023/08/05 15:58:35;;;;;;;3.88;1.52;;;;;;;39.98;21.10;97636.81;4939620;29;20267;-93
2023/08/05 16:01:03;;;;;;;2.35;0.85;;;;;;;39.87;20.53;97635.38;4956749;29;20652;-93
2023/08/05 16:03:29;;;;;;;2.40;1.17;;;;;;;39.72;20.58;97627.47;4939661;29;20267;-93
2023/08/05 16:06:09;;;;;;;2.42;1.10;;;;;;;39.97;21.31;97634.34;4939432;29;20287;-94
2023/08/05 16:08:38;;;;;;;2.47;1.25;;;;;;;39.47;21.03;97625.19;4939401;29;20181;-94
2023/08/05 16:11:12;;;;;;;2.33;1.00;;;;;;;39.42;21.19;97631.56;4956408;29;20172;-93
2023/08/05 16:13:38;;;;;;;2.42;1.00;;;;;;;39.38;21.40;97622.34;4939288;29;20177;-94
2023/08/05 16:16:17;;;;;;;2.80;1.30;;;;;;;39.56;20.87;97617.88;4939348;29;20515;-92
2023/08/05 16:18:44;;;;;;;2.95;1.05;;;;;;;39.29;21.56;97624.13;4939438;29;20181;-93
2023/08/05 16:21:22;;;;;;;3.75;0.98;;;;;;;39.00;21.15;97621.59;4939005;29;20181;-91
2023/08/05 16:23:53;;;;;;;3.53;0.98;;;;;;;39.10;21.87;97621.41;4935707;29;20237;-94
2023/08/05 16:26:21;;;;;;;5.18;0.77;;;;;;;38.78;21.73;97618.69;4935822;29;20196;-92
2023/08/05 16:28:47;;;;;;;1.67;0.88;;;;;;;38.49;22.23;97615.28;4936992;29;20177;-93
2023/08/05 16:31:14;;;;;;;2.70;0.98;;;;;;;38.41;22.44;97618.69;4935794;29;20682;-92
2023/08/05 16:33:40;;;;;;;2.45;0.80;;;;;;;38.65;21.77;97614.78;4935890;29;20177;-93
2023/08/05 16:36:07;;;;;;;1.65;0.90;;;;;;;38.47;21.68;97610.09;4935977;29;20173;-91
2023/08/05 16:38:33;;;;;;;2.88;1.15;;;;;;;38.44;22.26;97612.63;4935819;29;20177;-94
2023/08/05 16:41:01;;;;;;;2.75;1.23;;;;;;;38.38;22.38;97605.59;4936727;29;20194;-92
2023/08/05 16:43:28;;;;;;;4.35;1.17;;;;;;;38.21;22.73;97608.03;4936478;29;20205;-92
2023/08/05 16:45:54;;;;;;;4.47;1.05;;;;;;;38.23;23.26;97605.78;4935576;29;20292;-93
2023/08/05 16:48:19;;;;;;;1.98;0.90;;;;;;;38.46;22.58;97611.22;4935751;29;20200;-94
2023/08/05 16:50:45;;;;;;;2.33;0.80;;;;;;;38.26;23.06;97610.69;4935765;29;20177;-93
2023/08/05 16:53:11;;;;;;;3.78;1.30;;;;;;;38.28;22.73;97605.72;4935449;29;20181;-93
2023/08/05 16:55:37;;;;;;;2.80;1.23;;;;;;;38.39;22.57;97613.53;4935630;29;20178;-94
2023/08/05 16:58:03;;;;;;;2.25;1.10;;;;;;;38.38;22.97;97611.06;4935650;29;20178;-93
2023/08/05 17:00:28;;;;;;;3.00;1.23;;;;;;;38.04;22.76;97606.59;4935594;29;20530;-94
2023/08/05 17:02:54;;;;;;;1.60;1.10;;;;;;;37.99;23.42;97603.09;4935631;29;20204;-93
2023/08/05 17:05:19;;;;;;;2.67;1.20;;;;;;;37.99;23.45;97609.41;4935548;29;20209;-93
2023/08/05 17:07:51;;;;;;;3.17;1.38;;;;;;;37.97;23.33;97608.84;4935414;29;20177;-93
2023/08/05 17:10:16;;;;;;;2.38;1.15;;;;;;;38.11;23.60;97604.28;4935561;29;20177;-93
2023/08/05 17:12:42;;;;;;;5.88;1.88;;;;;;;38.00;23.97;97612.97;4935568;29;20200;-93
2023/08/05 17:15:15;;;;;;;2.05;0.93;;;;;;;37.89;23.89;97604.06;4935646;29;20193;-94
2023/08/05 17:17:40;;;;;;;3.38;1.23;;;;;;;37.95;24.09;97599.31;4935553;29;20170;-93
2023/08/05 17:20:06;;;;;;;3.42;1.80;;;;;;;38.07;24.30;97606.00;4936483;29;20546;-94
2023/08/05 17:22:33;;;;;;;2.28;1.30;;;;;;;38.04;24.52;97609.31;4936809;29;20537;-93
2023/08/05 17:24:59;;;;;;;6.47;1.55;;;;;;;37.88;25.39;97621.56;4938876;29;20200;-94
2023/08/05 17:27:24;;;;;;;2.83;1.58;;;;;;;37.94;26.80;97617.66;4938740;29;20181;-94
2023/08/05 17:29:57;;;;;;;11.20;4.07;;;;;;;38.00;28.07;97613.75;4938584;29;20177;-94
2023/08/05 17:32:22;;;;;;;3.63;1.55;;;;;;;38.05;29.16;97615.63;4938440;29;20177;-94
2023/08/05 17:34:48;;;;;;;6.75;1.40;;;;;;;38.04;29.42;97613.97;4938994;29;20184;-94
2023/08/05 17:37:16;;;;;;;5.72;2.75;;;;;;;37.97;30.42;97619.00;4938578;29;20177;-95
2023/08/05 17:39:44;;;;;;;8.00;1.63;;;;;;;37.87;30.80;97624.63;4955548;29;20188;-94
2023/08/05 17:42:44;;;;;;;3.47;1.70;;;;;;;37.76;31.23;97634.84;4938697;29;20181;-94
2023/08/05 17:45:40;;;;;;;4.78;1.90;;;;;;;37.45;31.92;97639.81;4930409;29;20241;-95
2023/08/05 17:48:08;;;;;;;6.18;1.88;;;;;;;37.40;31.96;97631.66;4911029;29;20205;-95
2023/08/05 17:50:34;;;;;;;2.92;1.15;;;;;;;36.98;32.55;97639.66;4938644;29;20653;-94
2023/08/05 17:52:59;;;;;;;3.88;1.40;;;;;;;36.88;32.91;97650.66;4937225;29;20272;-93
2023/08/05 17:55:25;;;;;;;4.25;1.58;;;;;;;36.12;34.34;97647.56;4935400;29;20493;-93
2023/08/05 17:57:52;;;;;;;5.22;1.77;;;;;;;36.15;34.15;97641.56;4938651;29;20248;-94
2023/08/05 18:00:17;;;;;;;3.72;1.75;;;;;;;35.96;34.63;97643.25;4938566;29;20181;-94
2023/08/05 18:02:51;;;;;;;5.00;1.55;;;;;;;35.71;35.42;97653.16;4938414;29;20188;-94
2023/08/05 18:05:18;;;;;;;7.47;1.80;;;;;;;35.58;35.42;97648.31;4938917;28;20211;-94
2023/08/05 18:07:53;;;;;;;4.93;2.15;;;;;;;35.71;35.55;97645.00;4957478;28;20188;-94
2023/08/05 18:10:19;;;;;;;5.93;1.40;;;;;;;35.72;35.06;97656.69;4949325;28;20189;-93
2023/08/05 18:12:45;;;;;;;3.05;1.45;;;;;;;35.74;35.29;97658.06;4942817;29;20188;-94
2023/08/05 18:15:11;;;;;;;2.85;1.50;;;;;;;35.79;34.96;97654.50;4951199;29;20190;-94
2023/08/05 18:17:38;;;;;;;6.47;2.28;;;;;;;35.88;35.02;97660.22;4939520;29;20251;-94
2023/08/05 18:20:05;;;;;;;6.05;2.20;;;;;;;35.49;35.61;97671.72;4923276;29;20174;-94
2023/08/05 18:22:30;;;;;;;3.60;1.55;;;;;;;35.38;35.78;97675.53;4939791;29;20332;-94
2023/08/05 18:24:56;;;;;;;4.47;1.33;;;;;;;35.50;35.80;97667.91;4924111;29;20285;-94
2023/08/05 18:27:48;;;;;;;;;;;;;;;;;;;;;
2023/08/05 18:30:35;;;;;;;;;;;;;;;;;;;;;
2023/08/05 18:33:13;;;;;;;4.75;2.08;;;;;;;35.32;36.02;97682.13;4958874;29;20177;-94
2023/08/05 18:35:39;;;;;;;4.32;1.90;;;;;;;35.43;35.83;97680.19;4922500;29;20612;-94
2023/08/05 18:38:14;;;;;;;4.57;2.13;;;;;;;35.36;36.44;97694.09;4922642;29;20193;-94
2023/08/05 18:40:48;;;;;;;4.18;1.88;;;;;;;35.38;36.41;97697.34;4922950;29;20252;-94
2023/08/05 18:46:19;;;;;;;7.57;2.63;;;;;;;35.07;36.90;97695.72;4932353;29;20206;-94
2023/08/05 18:48:50;;;;;;;8.13;2.50;;;;;;;35.15;36.85;97697.91;4923036;29;20173;-95
2023/08/05 18:51:38;;;;;;;6.43;2.72;;;;;;;35.09;37.72;97691.66;4929161;29;20182;-95
2023/08/05 18:54:39;;;;;;;7.75;2.20;;;;;;;34.82;37.95;97695.69;4927650;29;20219;-93
2023/08/05 18:57:07;;;;;;;8.90;4.97;;;;;;;34.86;37.83;97700.31;4941064;29;20181;-93
2023/08/05 19:00:01;;;;;;;;;;;;;;;;;;;;;
2023/08/05 19:02:28;;;;;;;5.32;2.92;;;;;;;34.61;38.51;97710.34;4958228;29;20173;-94
2023/08/05 19:04:56;;;;;;;5.40;3.25;;;;;;;34.75;38.00;97698.66;4941033;29;20209;-94
2023/08/05 19:07:32;;;;;;;8.90;2.85;;;;;;;34.77;38.21;97691.06;4941200;29;20220;-94
2023/08/05 19:10:00;;;;;;;3.22;1.52;;;;;;;34.84;38.12;97701.69;4940851;29;20191;-94
2023/08/05 19:12:28;;;;;;;6.63;2.40;;;;;;;34.73;38.31;97700.84;4940887;29;20189;-94
2023/08/05 19:14:54;;;;;;;7.70;1.95;;;;;;;34.71;38.97;97703.03;4941010;29;20189;-95
2023/08/05 19:17:20;;;;;;;5.50;2.10;;;;;;;34.61;39.23;97704.91;4940902;29;20180;-94
2023/08/05 19:19:55;;;;;;;;;;;;;;;;;;;;;
2023/08/05 19:22:35;;;;;;;5.40;1.65;;;;;;;34.24;39.87;97708.59;4937447;29;20153;-94
2023/08/05 19:25:04;;;;;;;5.63;1.88;;;;;;;34.13;40.43;97701.47;4920338;29;20264;-94
2023/08/05 19:27:32;;;;;;;3.17;1.52;;;;;;;34.13;40.13;97697.91;4921946;29;20182;-93
2023/08/05 19:29:57;;;;;;;6.68;2.20;;;;;;;34.13;40.28;97701.47;4921559;29;20185;-94
2023/08/05 19:32:31;;;;;;;5.40;2.00;;;;;;;34.17;40.39;97701.75;4921711;29;20257;-93
2023/08/05 19:34:57;;;;;;;6.90;2.38;;;;;;;34.15;40.33;97696.56;4923123;29;20205;-94
2023/08/05 19:37:25;;;;;;;4.82;2.00;;;;;;;34.13;40.41;97690.59;4921624;29;20646;-94
2023/08/05 19:40:50;;;;;;;;;;;;;;;;;;;;;
2023/08/05 19:43:24;;;;;;;4.70;2.05;;;;;;;33.98;40.78;97701.38;4918909;29;20193;-93
2023/08/05 19:46:04;;;;;;;7.25;2.50;;;;;;;33.82;41.12;97694.22;4919214;29;20230;-95
2023/08/05 19:49:24;;;;;;;;;;;;;;;;;;;;;
2023/08/05 19:51:49;;;;;;;8.95;1.70;;;;;;;33.29;40.81;97695.19;4937911;29;20188;-93
2023/08/05 19:54:15;;;;;;;5.05;2.20;;;;;;;32.98;40.60;97694.13;4921266;29;20265;-92
2023/08/05 19:56:43;;;;;;;17.25;5.90;;;;;;;32.85;39.94;97696.44;4917893;29;20570;-94
2023/08/05 19:59:08;;;;;;;5.50;1.63;;;;;;;32.58;39.40;97693.72;4914536;29;20218;-89
2023/08/05 20:01:35;;;;;;;5.75;1.40;;;;;;;32.30;39.58;97696.66;4911458;29;20675;-92
2023/08/05 20:04:01;;;;;;;5.72;1.67;;;;;;;32.09;39.91;97691.00;4927133;29;20277;-91
2023/08/05 20:06:26;;;;;;;10.13;1.73;;;;;;;32.04;39.54;97688.22;4916733;29;20210;-92
2023/08/05 20:08:54;;;;;;;2.90;1.50;;;;;;;31.99;39.28;97685.44;4908615;29;20187;-92
2023/08/05 20:11:20;;;;;;;7.47;1.70;;;;;;;32.04;39.67;97676.56;4920638;29;20192;-90
2023/08/05 20:13:45;;;;;;;3.90;1.63;;;;;;;31.92;40.26;97673.91;4924309;29;20282;-91
2023/08/05 20:16:11;;;;;;;4.90;1.80;;;;;;;31.76;40.71;97669.38;4936966;29;20178;-91
2023/08/05 20:18:38;;;;;;;4.60;1.55;;;;;;;31.65;41.51;97667.63;4920644;29;20193;-92
2023/08/05 20:21:04;;;;;;;5.53;2.00;;;;;;;31.55;41.62;97670.19;4920323;29;20208;-93
2023/08/05 20:23:32;;;;;;;9.38;1.90;;;;;;;31.79;41.41;97668.06;4929099;29;20207;-91
2023/08/05 20:25:57;;;;;;;4.43;1.77;;;;;;;31.85;42.00;97676.00;4956338;29;20197;-94
2023/08/05 20:28:23;;;;;;;4.28;1.70;;;;;;;31.87;41.85;97682.00;4939746;29;20192;-91